createdAt,value
2018-11-21T00:01:56.557Z,20.03
2018-11-21T00:06:01.273Z,18.37
2018-11-21T00:10:10.551Z,19.00
2018-11-21T00:14:15.318Z,17.83
2018-11-21T00:18:20.102Z,18.17
2018-11-21T00:22:24.833Z,18.10
2018-11-21T00:26:29.547Z,18.00
2018-11-21T00:30:34.266Z,17.37
2018-11-21T00:34:39.032Z,16.93
2018-11-21T00:38:43.788Z,17.27
2018-11-21T00:42:48.616Z,15.93
2018-11-21T00:46:53.308Z,16.57
2018-11-21T00:50:58.052Z,17.30
2018-11-21T00:55:03.278Z,18.20
2018-11-21T00:59:08.033Z,17.47
2018-11-21T01:03:12.794Z,16.37
2018-11-21T01:07:17.609Z,16.80
2018-11-21T01:11:22.350Z,17.03
2018-11-21T01:15:27.088Z,17.37
2018-11-21T01:19:31.819Z,18.77
2018-11-21T01:23:36.558Z,18.57
2018-11-21T01:27:41.312Z,17.77
2018-11-21T01:31:46.061Z,17.03
2018-11-21T01:35:50.829Z,16.80
2018-11-21T01:39:55.559Z,17.77
2018-11-21T01:44:00.335Z,17.70
2018-11-21T01:48:05.299Z,18.03
2018-11-21T01:52:10.072Z,17.47
2018-11-21T01:56:14.830Z,18.00
2018-11-21T02:00:19.550Z,19.00
2018-11-21T02:04:24.649Z,17.67
2018-11-21T02:08:29.395Z,18.53
2018-11-21T02:12:34.182Z,19.57
2018-11-21T02:16:39.015Z,19.40
2018-11-21T02:20:44.097Z,20.13
2018-11-21T02:24:48.846Z,19.33
2018-11-21T02:28:54.988Z,20.40
2018-11-21T02:32:59.703Z,20.67
2018-11-21T02:37:05.095Z,19.77
2018-11-21T02:41:09.792Z,20.47
2018-11-21T02:46:18.891Z,20.70
2018-11-21T02:50:31.606Z,21.37
2018-11-21T02:54:36.414Z,20.87
2018-11-21T02:58:55.941Z,20.83
2018-11-21T03:03:03.081Z,21.97
2018-11-21T03:07:14.691Z,21.77
2018-11-21T03:11:23.744Z,21.80
2018-11-21T03:16:09.708Z,21.53
2018-11-21T03:20:41.463Z,20.67
2018-11-21T03:24:52.817Z,20.73
2018-11-21T03:28:57.550Z,21.07
2018-11-21T03:33:02.320Z,21.03
2018-11-21T03:37:07.065Z,21.13
2018-11-21T03:41:11.855Z,22.03
2018-11-21T03:45:16.604Z,21.10
2018-11-21T03:49:21.368Z,21.33
2018-11-21T03:53:26.106Z,22.47
2018-11-21T03:57:30.940Z,21.57
2018-11-21T04:01:35.632Z,20.47
2018-11-21T04:05:40.422Z,21.60
2018-11-21T04:09:45.143Z,21.53
2018-11-21T04:13:50.017Z,21.93
2018-11-21T04:17:54.768Z,22.30
2018-11-21T04:22:02.705Z,22.00
2018-11-21T04:26:07.768Z,23.27
2018-11-21T04:30:13.434Z,23.20
2018-11-21T04:34:18.228Z,23.23
2018-11-21T04:38:22.975Z,22.90
2018-11-21T04:42:27.863Z,22.67
2018-11-21T04:46:32.576Z,21.73
2018-11-21T04:50:37.623Z,22.77
2018-11-21T04:54:42.432Z,23.53
2018-11-21T04:58:47.434Z,23.20
2018-11-21T05:02:52.189Z,23.27
2018-11-21T05:06:57.208Z,22.07
2018-11-21T05:11:01.987Z,21.97
2018-11-21T05:15:07.227Z,21.87
2018-11-21T05:19:12.020Z,22.80
2018-11-21T05:23:16.901Z,22.27
2018-11-21T05:27:21.691Z,22.23
2018-11-21T05:31:26.502Z,23.23
2018-11-21T05:35:31.208Z,23.17
2018-11-21T05:39:35.982Z,22.77
2018-11-21T05:43:40.736Z,22.53
2018-11-21T05:47:45.548Z,22.80
2018-11-21T05:51:50.309Z,23.60
2018-11-21T05:56:52.882Z,23.80
2018-11-21T06:00:49.573Z,22.50
2018-11-21T06:04:54.483Z,22.77
2018-11-21T06:08:59.214Z,22.83
2018-11-21T06:13:04.723Z,24.37
2018-11-21T06:17:09.503Z,23.50
2018-11-21T06:21:14.247Z,24.60
2018-11-21T06:25:19.213Z,24.13
2018-11-21T06:29:24.200Z,23.83
2018-11-21T06:33:29.218Z,25.87
2018-11-21T06:37:33.982Z,24.73
2018-11-21T06:41:43.241Z,24.87
2018-11-21T06:45:47.783Z,25.00
2018-11-21T06:49:52.793Z,25.60
2018-11-21T06:53:57.517Z,24.77
2018-11-21T06:58:02.439Z,26.47
2018-11-21T07:02:07.304Z,25.40
2018-11-21T07:06:12.052Z,25.07
2018-11-21T07:10:24.992Z,27.07
2018-11-21T07:14:31.682Z,24.87
2018-11-21T07:18:34.571Z,25.70
2018-11-21T07:22:39.746Z,26.13
2018-11-21T07:26:44.543Z,24.47
2018-11-21T07:30:49.291Z,25.53
2018-11-21T07:34:54.331Z,25.23
2018-11-21T07:38:59.320Z,23.93
2018-11-21T07:43:04.310Z,25.77
2018-11-21T07:47:09.454Z,24.43
2018-11-21T07:51:14.193Z,25.07
2018-11-21T07:55:37.810Z,23.77
2018-11-21T08:00:26.927Z,23.70
2018-11-21T08:04:54.008Z,24.27
2018-11-21T08:09:26.839Z,25.13
2018-11-21T08:13:49.659Z,25.33
2018-11-21T08:18:12.221Z,24.27
2018-11-21T08:22:39.242Z,24.50
2018-11-21T08:27:09.209Z,25.43
2018-11-21T08:31:14.146Z,25.70
2018-11-21T08:35:19.160Z,23.97
2018-11-21T08:39:24.228Z,24.93
2018-11-21T08:43:28.984Z,23.30
2018-11-21T08:47:33.721Z,24.20
2018-11-21T08:51:38.606Z,25.50
2018-11-21T08:55:43.390Z,24.43
2018-11-21T08:59:48.128Z,24.57
2018-11-21T09:03:52.903Z,24.67
2018-11-21T09:07:57.675Z,25.37
2018-11-21T09:12:02.607Z,24.80
2018-11-21T09:16:07.462Z,23.00
2018-11-21T09:20:12.799Z,24.50
2018-11-21T09:24:17.538Z,24.40
2018-11-21T09:28:22.287Z,25.17
2018-11-21T09:32:27.133Z,25.10
2018-11-21T09:36:31.895Z,24.20
2018-11-21T09:40:36.626Z,26.27
2018-11-21T09:44:41.812Z,23.57
2018-11-21T09:48:46.654Z,26.13
2018-11-21T09:52:51.434Z,25.40
2018-11-21T09:56:56.143Z,24.07
2018-11-21T10:01:40.488Z,25.13
2018-11-21T10:05:47.306Z,24.97
2018-11-21T10:09:52.489Z,27.67
2018-11-21T10:13:57.247Z,25.90
2018-11-21T10:18:01.983Z,26.27
2018-11-21T10:22:06.729Z,24.37
2018-11-21T10:26:11.513Z,25.57
2018-11-21T10:30:16.315Z,25.00
2018-11-21T10:34:21.043Z,26.07
2018-11-21T10:38:25.802Z,26.23
2018-11-21T10:42:30.899Z,25.83
2018-11-21T10:46:35.656Z,25.70
2018-11-21T10:50:40.666Z,26.03
2018-11-21T10:54:45.732Z,25.43
2018-11-21T10:58:50.542Z,26.43
2018-11-21T11:02:58.066Z,26.77
2018-11-21T11:07:20.806Z,26.60
2018-11-21T11:12:02.953Z,26.73
2018-11-21T11:16:22.920Z,26.07
2018-11-21T11:20:45.239Z,25.77
2018-11-21T11:25:24.299Z,26.63
2018-11-21T11:29:46.994Z,27.27
2018-11-21T11:34:05.718Z,26.67
2018-11-21T11:38:47.858Z,24.67
2018-11-21T11:43:30.014Z,24.87
2018-11-21T11:48:06.325Z,26.77
2018-11-21T11:52:28.798Z,25.93
2018-11-21T11:57:07.774Z,26.50
2018-11-21T12:01:34.437Z,25.33
2018-11-21T12:05:57.187Z,25.57
2018-11-21T12:10:19.909Z,26.30
2018-11-21T12:14:35.512Z,26.23
2018-11-21T12:19:02.388Z,25.47
2018-11-21T12:23:23.554Z,25.33
2018-11-21T12:27:56.780Z,26.13
2018-11-21T12:32:23.623Z,25.73
2018-11-21T12:36:46.601Z,26.10
2018-11-21T12:41:04.117Z,25.93
2018-11-21T12:45:22.047Z,25.30
2018-11-21T12:49:51.904Z,26.23
2018-11-21T12:54:34.049Z,25.13
2018-11-21T12:58:51.938Z,25.07
2018-11-21T13:03:25.071Z,26.60
2018-11-21T13:07:58.051Z,26.77
2018-11-21T13:12:24.839Z,25.23
2018-11-21T13:17:04.353Z,25.33
2018-11-21T13:21:26.511Z,25.67
2018-11-21T13:25:49.330Z,24.50
2018-11-21T13:30:11.866Z,25.87
2018-11-21T13:34:26.122Z,26.70
2018-11-21T13:38:48.887Z,26.33
2018-11-21T13:43:12.832Z,25.10
2018-11-21T13:47:39.458Z,26.67
2018-11-21T13:52:08.958Z,25.00
2018-11-21T13:56:13.771Z,24.37
2018-11-21T14:00:18.639Z,24.93
2018-11-21T14:04:23.403Z,25.77
2018-11-21T14:08:28.234Z,24.30
2018-11-21T14:12:32.996Z,25.40
2018-11-21T14:16:38.079Z,25.30
2018-11-21T14:20:43.063Z,25.07
2018-11-21T14:24:47.809Z,25.03
2018-11-21T14:28:52.782Z,26.13
